• Join FlightAware (Why Join?)
  • Login
  • US Flag 
Trick or treat! (Boo!!) 
09:13PM EDT


 

Airport Tracker/Info


-or-


 

Live Flight TrackerFlight Track Log ✈ AAY842 ✈ 06-Jul-2014 ✈ KPIE - KSYR

Flight Track Log - Related Links

Times and Time Zones

All times are in EDT time to prevent confusion due to time zone crossing. See the AAY842 flight status page for this flight to view local times or setup timezone preferences in your user account.

Time Position Orientation Groundspeed Altitude Reporting Facility
EDT Latitude Longitude Course Direction KTS MPH feet Rate Location/Type
07:10AM 27.9000 -82.6833 180° South 154 177 700  Level Tampa TRACON
07:11AM 27.8500 -82.6833 180° South 192 221 2,900 2,040 Climbing Tampa TRACON
07:12AM 27.8167 -82.7167 221° Southwest 229 264 5,100 2,040 Climbing Tampa TRACON
07:14AM 27.9119 -82.7639 336° Northwest 288 331 8,500 2,040 Climbing Miami Center
07:15AM 27.9978 -82.7461 10° North 308 354 10,700 1,620 Climbing Miami Center
07:16AM 28.0994 -82.7558 355° North 355 409 11,800 1,740 Climbing Miami Center
07:17AM 28.2119 -82.7525 North 392 451 14,300 2,580 Climbing Miami Center
07:18AM 28.3336 -82.7464 North 390 449 16,800 2,220 Climbing Jacksonville Center
07:19AM 28.4544 -82.7461 360° North 407 468 18,600 1,860 Climbing Jacksonville Center
07:20AM 28.5756 -82.7436 North 427 491 20,600 1,740 Climbing Jacksonville Center
07:21AM 28.6903 -82.7386 North 445 512 22,100 1,560 Climbing Jacksonville Center
07:22AM 28.8178 -82.7361 North 451 519 23,800 1,620 Climbing Jacksonville Center
07:23AM 28.9469 -82.7289 North 456 525 25,400 1,560 Climbing Jacksonville Center
07:24AM 29.0764 -82.7264 North 456 525 27,000 780 Climbing Jacksonville Center
07:25AM 29.2017 -82.7236 North 456 525 27,000 480 Level Jacksonville Center
07:26AM 29.3331 -82.7211 North 456 525 28,000 480 Climbing Jacksonville Center
07:27AM 29.4606 -82.7161 North 456 525 28,000 540 Level Jacksonville Center
07:28AM 29.6003 -82.7158 360° North 457 526 29,100 1,080 Climbing Jacksonville Center
07:29AM 29.7319 -82.7108 North 464 534 30,200 900 Climbing Jacksonville Center
07:30AM 29.8592 -82.7106 360° North 458 527 31,000 360 Climbing Jacksonville Center
07:31AM 29.9719 -82.7008 North 458 527 31,000  Level Jacksonville Center
07:32AM 30.1036 -82.6981 North 458 527 31,000  Level Jacksonville Center
07:33AM 30.2308 -82.6931 North 458 527 31,000  Level Jacksonville Center
07:34AM 30.3542 -82.6903 North 452 520 31,000  Level Jacksonville Center
07:35AM 30.4836 -82.6853 North 452 520 31,000  Level Jacksonville Center
07:36AM 30.5961 -82.6247 25° Northeast 444 511 31,000  Level Jacksonville Center
07:37AM 30.7086 -82.5519 29° Northeast 438 504 31,000  Level Jacksonville Center
07:38AM 30.8169 -82.4789 30° Northeast 443 510 31,000  Level Jacksonville Center
07:39AM 30.9294 -82.4058 29° Northeast 449 517 31,000  Level Jacksonville Center
07:40AM 31.0400 -82.3275 31° Northeast 455 524 31,000  Level Jacksonville Center
07:41AM 31.1503 -82.2542 30° Northeast 455 524 31,000  Level Jacksonville Center
07:42AM 31.2606 -82.1731 32° Northeast 461 531 31,000  Level Jacksonville Center
07:43AM 31.3728 -82.0994 29° Northeast 461 531 31,000  Level Jacksonville Center
07:44AM 31.4933 -82.0131 31° Northeast 461 531 31,000  Level Jacksonville Center
07:45AM 31.5950 -81.9461 29° Northeast 461 531 31,000  Level Jacksonville Center
07:46AM 31.7156 -81.8569 32° Northeast 461 531 31,000  Level Jacksonville Center
07:47AM 31.8275 -81.7825 29° Northeast 461 531 31,000  Level Jacksonville Center
07:48AM 31.9250 -81.7103 32° Northeast 464 534 31,000  Level Jacksonville Center
07:49AM 32.0517 -81.6253 30° Northeast 469 540 31,000  Level Jacksonville Center
07:50AM 32.1614 -81.5453 32° Northeast 469 540 31,000  Level Jacksonville Center
07:51AM 32.2672 -81.4750 29° Northeast 464 534 31,000  Level Jacksonville Center
07:52AM 32.3914 -81.3844 32° Northeast 472 543 31,000  Level Jacksonville Center
07:53AM 32.5031 -81.3086 30° Northeast 467 537 31,000  Level Jacksonville Center
07:54AM 32.5983 -81.2356 33° Northeast 462 532 31,000 120 Level Jacksonville Center
07:55AM 32.7119 -81.1594 29° Northeast 457 526 31,300 120 Climbing Jacksonville Center
07:56AM 32.8194 -81.0758 33° Northeast 457 526 31,300 300 Level Jacksonville Center
07:57AM 32.9311 -80.9967 31° Northeast 457 526 31,900 660 Climbing Jacksonville Center
07:58AM 33.0403 -80.9128 33° Northeast 467 537 32,700 540 Climbing Jacksonville Center
07:59AM 33.1539 -80.8381 29° Northeast 467 537 33,000 120 Climbing Jacksonville Center
08:00AM 33.2672 -80.7536 32° Northeast 467 537 33,000  Level Jacksonville Center
08:01AM 33.3808 -80.6739 30° Northeast 467 537 33,000  Level Jacksonville Center
08:02AM 33.4919 -80.5889 33° Northeast 467 537 33,000  Level Jacksonville Center
08:03AM 33.6053 -80.5086 31° Northeast 467 537 33,000  Level Jacksonville Center
08:04AM 33.7161 -80.4206 33° Northeast 467 537 33,000  Level Jacksonville Center
08:05AM 33.8314 -80.3425 29° Northeast 472 543 33,000  Level Jacksonville Center
08:06AM 33.9403 -80.2567 33° Northeast 467 537 33,000  Level Jacksonville Center
08:07AM 34.0533 -80.1756 31° Northeast 467 537 33,000  Level Jacksonville Center
08:08AM 34.1661 -80.0892 32° Northeast 467 537 33,000  Level Jacksonville Center
08:09AM 34.2792 -80.0053 32° Northeast 467 537 33,000  Level Jacksonville Center
08:10AM 34.3919 -79.9233 31° Northeast 467 537 33,000  Level Jacksonville Center
08:11AM 34.5025 -79.8339 34° Northeast 467 537 33,000  Level Jacksonville Center
08:12AM 34.6619 -79.7153 31° Northeast 476 548 33,000  Level Washington Center
08:13AM 34.7736 -79.6250 34° Northeast 476 548 33,000  Level Washington Center
08:14AM 34.8911 -79.5422 30° Northeast 481 554 33,000  Level Washington Center
08:15AM 35.0025 -79.4536 33° Northeast 481 554 33,000  Level Washington Center
08:16AM 35.1178 -79.3728 30° Northeast 481 554 33,000  Level Washington Center
08:17AM 35.2311 -79.2842 33° Northeast 481 554 33,000  Level Washington Center
08:18AM 35.3511 -79.2464 14° North 481 554 33,000  Level Washington Center
08:19AM 35.4756 -79.2086 14° North 463 533 33,000  Level Washington Center
08:20AM 35.6122 -79.1714 12° North 458 527 33,000  Level Washington Center
08:21AM 35.7306 -79.1178 20° North 453 521 33,000  Level Washington Center
08:22AM 35.8514 -79.0592 21° North 453 521 33,000  Level Washington Center
08:23AM 35.9717 -79.0081 19° North 453 521 33,000  Level Washington Center
08:24AM 36.0903 -78.9489 22° Northeast 453 521 33,000  Level Washington Center
08:25AM 36.2086 -78.8972 19° North 453 521 33,000  Level Washington Center
08:26AM 36.3267 -78.8508 18° North 453 521 33,000  Level Washington Center
08:27AM 36.4450 -78.7989 19° North 448 516 33,000  Level Washington Center
08:28AM 36.5650 -78.7547 16° North 448 516 33,000  Level Washington Center
08:29AM 36.6600 -78.7144 19° North 448 516 33,000  Level Washington Center
08:30AM 36.7886 -78.6575 20° North 448 516 33,000  Level Washington Center
08:31AM 36.9069 -78.6050 20° North 448 516 33,000  Level Washington Center
08:32AM 37.0269 -78.5603 17° North 448 516 33,000  Level Washington Center
08:33AM 37.1469 -78.5075 19° North 448 516 33,000  Level Washington Center
08:34AM 37.2669 -78.4625 17° North 448 516 33,000  Level Washington Center
08:35AM 37.3872 -78.4122 18° North 448 516 33,000  Level Washington Center
08:36AM 37.5094 -78.3617 18° North 448 516 33,000  Level Washington Center
08:37AM 37.6294 -78.3111 18° North 448 516 33,000  Level Washington Center
08:38AM 37.7536 -78.2631 17° North 448 516 33,000  Level Washington Center
08:39AM 37.8756 -78.2119 18° North 448 516 33,000  Level Washington Center
08:40AM 38.0019 -78.1611 18° North 441 507 33,000  Level Washington Center
08:41AM 38.1197 -78.1069 20° North 436 502 33,000  Level Washington Center
08:42AM 38.2397 -78.0531 19° North 442 509 33,000  Level Washington Center
08:43AM 38.3597 -77.9961 20° North 448 516 33,000  Level Washington Center
08:44AM 38.4756 -77.9414 20° North 447 514 33,000  Level Washington Center
08:45AM 38.5933 -77.8867 20° North 447 514 33,000  Level Washington Center
08:46AM 38.7111 -77.8319 20° North 447 514 33,000  Level Washington Center
08:47AM 38.8183 -77.7872 18° North 447 514 33,000  Level Washington Center
08:48AM 38.9531 -77.7164 22° Northeast 461 531 33,000  Level Washington Center
08:49AM 39.0603 -77.6686 19° North 453 521 33,000  Level Washington Center
08:51AM 39.3461 -77.5342 20° North 452 520 33,000  Level New York Center
08:52AM 39.4639 -77.4783 20° North 453 521 33,000  Level New York Center
08:53AM 39.5775 -77.4244 20° North 423 487 33,000  Level New York Center
08:54AM 39.6933 -77.3678 21° North 411 473 33,000  Level New York Center
08:55AM 39.8089 -77.3139 20° North 427 491 33,000  Level New York Center
08:56AM 39.9247 -77.2597 20° North 427 491 33,000 -780 Level New York Center
08:57AM 40.0403 -77.2025 21° North 438 504 31,500 -1,440 Descending New York Center
08:58AM 40.1431 -77.1550 19° North 438 504 30,200 -1,260 Descending New York Center
08:59AM 40.2589 -77.0950 22° Northeast 438 504 29,000 -600 Descending New York Center
09:00AM 40.3783 -77.0406 19° North 443 510 29,000  Level New York Center
09:01AM 40.4919 -76.9825 21° North 443 510 29,000 -300 Level New York Center
09:02AM 40.6075 -76.9247 21° North 443 510 28,500 -1,200 Descending New York Center
09:03AM 40.7253 -76.8667 20° North 438 504 26,700 -1,620 Descending New York Center
09:04AM 40.8386 -76.8108 20° North 438 504 25,300 -1,620 Descending New York Center
09:05AM 40.9561 -76.7500 21° North 438 504 23,600 -1,320 Descending New York Center
09:06AM 41.0717 -76.6939 20° North 438 504 22,700 -1,200 Descending New York Center
09:07AM 41.1847 -76.6378 20° North 438 504 21,300 -900 Descending New York Center
09:08AM 41.2981 -76.5814 20° North 438 504 21,000 -180 Descending New York Center
09:09AM 41.4111 -76.5275 20° North 438 504 21,000  Level New York Center
09:10AM 41.5222 -76.4678 22° Northeast 432 497 21,000  Level New York Center
09:11AM 41.6333 -76.4106 21° North 432 497 21,000 -360 Level New York Center
09:12AM 41.7550 -76.3458 22° Northeast 426 490 20,300 -840 Descending New York Center
09:13AM 41.8639 -76.2908 21° North 421 484 19,400 -960 Descending New York Center
09:14AM 41.9575 -76.2428 21° North 412 474 18,500 -900 Descending New York Center
09:15AM 42.0792 -76.1803 21° North 412 474 17,700 -840 Descending New York Center
09:16AM 42.1833 -76.1328 19° North 412 474 16,900 -900 Descending New York Center
09:17AM 42.2897 -76.1275 North 389 448 16,000 -960 Descending New York Center
09:18AM 42.3472 -76.1150 North 385 443 15,300 -1,080 Descending Boston Center
09:19AM 42.4514 -76.0994 North 384 442 14,200 -1,140 Descending Boston Center
09:20AM 42.5603 -76.0903 North 380 437 13,000 -1,140 Descending Boston Center
09:21AM 42.6614 -76.0728 North 370 426 11,900 -1,080 Descending Boston Center
09:22AM 42.7464 -76.0219 24° Northeast 339 390 10,800 -1,200 Descending Boston Center
09:23AM 42.8414 -75.9725 21° North 311 358 9,500 -1,680 Descending Boston Center
09:24AM 42.9158 -75.9392 18° North 268 308 7,400 -2,280 Descending Boston Center
09:25AM 42.9850 -75.9378 North 259 298 4,800 -1,500 Descending Boston Center
09:26AM 43.0558 -75.9386 360° North 258 297 4,400 -1,200 Descending Boston Center
09:27AM 43.1022 -75.9361 North 146 168 2,400 -1,140 Descending Boston Center
09:29AM 43.1103 -76.0408 276° West 131 151 1,000 -720 Descending Boston Center